Time;durP1;ratioP1;P1;durP2;ratioP2;P2;SDS_P1;SDS_P2;PMS_P1;PMS_P2;Temp;Humidity;BMP_temperature;BMP_pressure;BME280_temperature;BME280_humidity;BME280_pressure;Samples;Min_cycle;Max_cycle;Signal;HPM_P1;HPM_P2
2022/01/19 17:32:38;;;;;;;21.47;14.30;;;4.50;99.90;;;;;;5104476;27;20537;-77
2022/01/19 17:35:04;;;;;;;22.40;15.00;;;4.50;99.90;;;;;;5090165;28;20223;-78
2022/01/19 17:37:31;;;;;;;22.23;15.93;;;4.50;99.90;;;;;;5087483;28;20177;-77
2022/01/19 17:39:58;;;;;;;27.50;16.83;;;4.60;99.90;;;;;;5083990;28;20198;-77
2022/01/19 17:42:26;;;;;;;27.20;16.20;;;4.70;99.90;;;;;;5100077;28;20192;-77
2022/01/19 17:44:53;;;;;;;24.17;17.17;;;4.70;99.90;;;;;;5082705;28;20248;-77
2022/01/19 17:47:45;;;;;;;25.73;18.00;;;4.80;99.90;;;;;;5086620;28;20219;-77
2022/01/19 17:51:03;;;;;;;24.73;16.87;;;4.80;99.90;;;;;;5066940;28;20206;-77
2022/01/19 17:52:57;;;;;;;26.17;16.10;;;4.80;99.90;;;;;;5071368;28;20287;-77
2022/01/19 17:55:23;;;;;;;24.33;17.53;;;4.80;99.90;;;;;;5084912;28;20205;-77
2022/01/19 17:57:48;;;;;;;21.97;16.23;;;4.90;99.90;;;;;;5087858;28;20181;-77
2022/01/19 18:00:14;;;;;;;24.43;17.13;;;4.90;99.90;;;;;;5085878;28;20200;-77
2022/01/19 18:02:40;;;;;;;27.20;17.13;;;4.90;99.90;;;;;;5087390;28;20386;-77
2022/01/19 18:05:06;;;;;;;26.63;17.80;;;5.00;99.90;;;;;;5087159;28;20178;-77
2022/01/19 18:07:32;;;;;;;24.17;17.47;;;5.00;99.90;;;;;;5080366;28;20182;-77
2022/01/19 18:09:58;;;;;;;23.77;17.10;;;5.10;99.90;;;;;;5066721;28;20195;-79
2022/01/19 18:12:25;;;;;;;23.80;17.50;;;5.10;99.90;;;;;;5086983;28;20170;-78
2022/01/19 18:14:50;;;;;;;23.43;16.50;;;5.10;99.90;;;;;;5087844;28;20183;-78
2022/01/19 18:17:16;;;;;;;26.97;18.03;;;5.10;99.90;;;;;;5088221;28;20181;-78
2022/01/19 18:19:42;;;;;;;27.37;18.03;;;5.10;99.90;;;;;;5072089;28;20202;-78
2022/01/19 18:22:09;;;;;;;24.77;17.07;;;5.10;99.90;;;;;;5072822;28;20202;-78
2022/01/19 18:24:36;;;;;;;23.57;17.13;;;5.10;99.90;;;;;;5081710;28;20175;-79
2022/01/19 18:27:03;;;;;;;25.40;18.57;;;5.20;99.90;;;;;;5084714;28;20203;-79
2022/01/19 18:29:29;;;;;;;28.37;18.00;;;5.20;99.90;;;;;;5087866;28;20198;-79
2022/01/19 18:31:56;;;;;;;28.00;18.33;;;5.20;99.90;;;;;;5084301;28;20240;-78
2022/01/19 18:34:23;;;;;;;25.37;17.03;;;5.20;99.90;;;;;;5084856;28;20178;-78
2022/01/19 18:36:48;;;;;;;23.10;18.27;;;5.20;99.90;;;;;;5081544;28;20661;-78
2022/01/19 18:39:14;;;;;;;23.87;17.67;;;5.30;99.90;;;;;;5081728;28;20198;-79
2022/01/19 18:41:40;;;;;;;23.73;17.73;;;5.30;99.90;;;;;;5066824;28;20195;-77
2022/01/19 18:44:06;;;;;;;26.27;18.17;;;5.30;99.90;;;;;;5060138;28;20186;-78
2022/01/19 18:46:31;;;;;;;25.97;18.00;;;5.30;99.90;;;;;;5065523;28;20167;-78
2022/01/19 18:48:57;;;;;;;24.97;18.03;;;5.30;99.90;;;;;;5073597;28;20705;-78
2022/01/19 18:51:23;;;;;;;23.57;17.33;;;5.30;99.90;;;;;;5063770;28;20210;-78
2022/01/19 18:53:51;;;;;;;23.87;17.03;;;5.40;99.90;;;;;;5054318;28;20180;-79
2022/01/19 18:56:16;;;;;;;25.03;18.17;;;5.40;99.90;;;;;;5053707;28;20179;-79
2022/01/19 18:58:42;;;;;;;28.87;18.63;;;5.40;99.90;;;;;;5063850;28;20653;-78
2022/01/19 19:01:08;;;;;;;26.07;18.17;;;5.40;99.90;;;;;;5074122;28;20558;-78
2022/01/19 19:03:33;;;;;;;25.63;18.67;;;5.40;99.90;;;;;;5082765;28;20170;-78
2022/01/19 19:05:59;;;;;;;25.90;17.97;;;5.40;99.90;;;;;;5076338;28;20176;-79
2022/01/19 19:08:25;;;;;;;25.37;17.80;;;5.40;99.90;;;;;;5072764;28;20166;-78
2022/01/19 19:11:06;;;;;;;24.20;16.67;;;5.50;99.90;;;;;;5059160;28;20234;-78
2022/01/19 19:13:34;;;;;;;23.73;16.53;;;5.50;99.90;;;;;;5053111;28;20176;-78
2022/01/19 19:16:00;;;;;;;26.17;16.47;;;5.50;99.90;;;;;;5070075;28;20175;-78
2022/01/19 19:18:28;;;;;;;23.10;15.50;;;5.50;99.90;;;;;;5072730;28;20292;-78
2022/01/19 19:20:53;;;;;;;21.73;14.77;;;5.50;99.90;;;;;;5057603;28;20203;-78
2022/01/19 19:23:19;;;;;;;21.43;14.00;;;5.50;99.90;;;;;;5053076;28;20176;-78
2022/01/19 19:25:45;;;;;;;22.53;14.03;;;5.50;99.90;;;;;;5061387;28;20176;-79
2022/01/19 19:28:11;;;;;;;22.57;14.70;;;5.50;99.90;;;;;;5053409;28;20207;-78
2022/01/19 19:30:38;;;;;;;22.97;12.60;;;5.50;99.90;;;;;;5051990;28;20216;-78
2022/01/19 19:33:04;;;;;;;23.27;12.33;;;5.50;99.90;;;;;;5053981;28;20179;-79
2022/01/19 19:35:31;;;;;;;22.33;13.23;;;5.60;99.90;;;;;;5072445;28;20198;-78
2022/01/19 19:37:58;;;;;;;21.07;12.20;;;5.60;99.90;;;;;;5064044;28;20248;-78
2022/01/19 19:40:24;;;;;;;19.53;11.53;;;5.60;99.90;;;;;;5066776;28;20628;-78
2022/01/19 19:42:51;;;;;;;23.43;12.47;;;5.60;99.90;;;;;;5066361;28;20258;-78
2022/01/19 19:45:18;;;;;;;21.73;12.03;;;5.60;99.90;;;;;;5058534;28;20266;-78
2022/01/19 19:47:47;;;;;;;20.93;11.00;;;5.60;99.90;;;;;;5069348;28;20182;-79
2022/01/19 19:50:16;;;;;;;19.83;11.13;;;5.70;99.90;;;;;;5068334;28;20230;-79
2022/01/19 19:52:43;;;;;;;22.10;10.80;;;5.70;99.90;;;;;;5069124;28;20579;-78
2022/01/19 19:55:10;;;;;;;20.40;10.20;;;5.70;99.90;;;;;;5067904;28;20183;-78
2022/01/19 19:57:36;;;;;;;20.37;8.50;;;5.70;99.90;;;;;;5069158;28;20271;-78
2022/01/19 20:00:10;;;;;;;21.27;8.70;;;5.70;99.90;;;;;;5067232;28;20218;-79
2022/01/19 20:02:35;;;;;;;17.77;8.10;;;5.60;99.90;;;;;;5069305;28;20206;-79
2022/01/19 20:05:01;;;;;;;18.37;7.30;;;5.60;99.90;;;;;;5068566;28;20193;-79
2022/01/19 20:07:27;;;;;;;18.87;7.10;;;5.70;99.90;;;;;;5068513;28;20187;-79
2022/01/19 20:09:54;;;;;;;17.27;6.93;;;5.70;99.90;;;;;;5067130;28;20199;-78
2022/01/19 20:12:20;;;;;;;18.67;5.57;;;5.70;99.90;;;;;;5067293;28;20197;-79
2022/01/19 20:14:45;;;;;;;16.47;6.00;;;5.70;99.90;;;;;;5068184;28;20182;-78
2022/01/19 20:17:15;;;;;;;16.13;5.53;;;5.70;99.90;;;;;;5067828;28;20191;-78
2022/01/19 20:19:44;;;;;;;18.57;5.40;;;5.70;99.90;;;;;;5067352;28;20282;-78
2022/01/19 20:22:09;;;;;;;16.57;3.87;;;5.80;99.90;;;;;;5067152;28;20213;-77
2022/01/19 20:24:35;;;;;;;17.80;3.97;;;5.80;99.90;;;;;;5067270;28;20191;-78
2022/01/19 20:27:03;;;;;;;16.60;3.70;;;5.80;99.90;;;;;;5067210;28;20229;-78
2022/01/19 20:29:29;;;;;;;12.33;3.70;;;5.80;99.90;;;;;;5066186;28;20207;-77
2022/01/19 20:31:55;;;;;;;14.77;3.67;;;5.80;99.90;;;;;;5067546;28;20190;-78
2022/01/19 20:34:21;;;;;;;12.93;3.23;;;5.80;99.90;;;;;;5067293;28;20190;-78
2022/01/19 20:36:47;;;;;;;11.93;2.73;;;5.80;99.90;;;;;;5066792;28;20183;-78
2022/01/19 20:39:14;;;;;;;16.17;2.73;;;5.90;99.90;;;;;;5065762;28;20230;-78
2022/01/19 20:41:42;;;;;;;13.90;2.73;;;5.90;99.90;;;;;;5065989;28;20207;-78
2022/01/19 20:44:08;;;;;;;8.50;1.80;;;5.80;99.90;;;;;;5068022;28;20190;-78
2022/01/19 20:46:34;;;;;;;13.03;1.97;;;5.80;99.90;;;;;;5068502;28;20183;-77
2022/01/19 20:48:59;;;;;;;8.50;1.93;;;5.80;99.90;;;;;;5067393;28;20293;-78
2022/01/19 20:51:25;;;;;;;12.03;2.27;;;5.80;99.90;;;;;;5068143;28;20266;-78
2022/01/19 20:53:51;;;;;;;12.80;2.40;;;5.70;99.90;;;;;;5068568;28;20209;-78
2022/01/19 20:56:17;;;;;;;7.97;2.07;;;5.70;99.90;;;;;;5068292;28;20179;-78
2022/01/19 20:58:43;;;;;;;8.67;2.13;;;5.60;99.90;;;;;;5068393;28;20187;-78
2022/01/19 21:01:09;;;;;;;8.03;1.97;;;5.60;99.90;;;;;;5068853;28;20256;-78
2022/01/19 21:03:34;;;;;;;12.53;2.37;;;5.50;99.90;;;;;;5067951;28;20202;-78
2022/01/19 21:06:00;;;;;;;16.47;2.60;;;5.60;99.90;;;;;;5069860;28;20265;-78
2022/01/19 21:08:25;;;;;;;12.20;2.53;;;5.60;99.90;;;;;;5067656;28;20186;-78
2022/01/19 21:10:51;;;;;;;14.30;2.70;;;5.50;99.90;;;;;;5067546;28;20222;-78
2022/01/19 21:13:17;;;;;;;10.13;2.10;;;5.50;99.90;;;;;;5069626;28;20257;-78
2022/01/19 21:15:42;;;;;;;12.20;2.40;;;5.40;99.90;;;;;;5068006;28;20268;-78
2022/01/19 21:18:08;;;;;;;9.70;2.00;;;5.40;99.90;;;;;;5067649;28;20202;-79
2022/01/19 21:20:34;;;;;;;12.67;2.90;;;5.30;99.90;;;;;;5065692;28;20215;-78
2022/01/19 21:23:00;;;;;;;11.00;2.17;;;5.30;99.90;;;;;;5068239;28;20206;-78
2022/01/19 21:25:27;;;;;;;14.17;2.20;;;5.30;99.90;;;;;;5067498;28;20182;-78
2022/01/19 21:27:53;;;;;;;12.57;2.53;;;5.30;99.90;;;;;;5067944;28;20178;-78
2022/01/19 21:30:21;;;;;;;8.93;2.00;;;5.20;99.90;;;;;;5067371;28;20755;-78
2022/01/19 21:32:48;;;;;;;13.03;2.00;;;5.20;99.90;;;;;;5068678;28;20187;-78
2022/01/19 21:35:15;;;;;;;12.60;2.17;;;5.20;99.90;;;;;;5066825;28;20539;-78
2022/01/19 21:37:41;;;;;;;12.87;2.30;;;5.20;99.90;;;;;;5067335;28;20198;-78
2022/01/19 21:40:08;;;;;;;8.27;2.03;;;5.20;99.90;;;;;;5066100;28;20213;-78
2022/01/19 21:42:35;;;;;;;16.43;2.63;;;5.20;99.90;;;;;;5065845;28;20206;-77
2022/01/19 21:45:00;;;;;;;8.23;2.03;;;5.20;99.90;;;;;;5065057;28;20178;-78
2022/01/19 21:47:26;;;;;;;16.90;2.83;;;5.10;99.90;;;;;;5064039;28;20663;-79
2022/01/19 21:49:51;;;;;;;22.37;3.17;;;5.10;99.90;;;;;;5061521;28;20199;-79
2022/01/19 21:52:17;;;;;;;9.70;2.57;;;5.10;99.90;;;;;;5066391;28;20190;-79
2022/01/19 21:54:43;;;;;;;11.07;2.20;;;5.10;99.90;;;;;;5066482;28;20261;-79
2022/01/19 21:57:11;;;;;;;14.30;2.13;;;5.10;99.90;;;;;;5065235;28;20186;-79
2022/01/19 21:59:37;;;;;;;12.57;2.53;;;5.10;99.90;;;;;;5065364;28;20210;-79
2022/01/19 22:02:03;;;;;;;11.03;2.00;;;5.10;99.90;;;;;;5065647;28;20198;-79
2022/01/19 22:04:29;;;;;;;14.13;2.57;;;5.00;99.90;;;;;;5067479;28;20203;-79
2022/01/19 22:06:55;;;;;;;12.17;2.63;;;5.00;99.90;;;;;;5066424;28;20263;-79
2022/01/19 22:09:22;;;;;;;12.30;2.13;;;5.00;99.90;;;;;;5066706;28;20203;-78
2022/01/19 22:11:57;;;;;;;14.93;2.77;;;5.00;99.90;;;;;;5067983;28;20179;-78
2022/01/19 22:14:24;;;;;;;12.60;2.20;;;4.90;99.90;;;;;;5066993;28;20209;-78
2022/01/19 22:16:50;;;;;;;14.87;2.50;;;5.00;99.90;;;;;;5068188;28;20179;-78
2022/01/19 22:19:17;;;;;;;16.63;2.80;;;4.90;99.90;;;;;;5070580;28;20206;-78
2022/01/19 22:21:45;;;;;;;11.63;2.33;;;4.90;99.90;;;;;;5067886;28;20267;-78
2022/01/19 22:24:15;;;;;;;11.73;2.83;;;4.90;99.90;;;;;;5071590;28;20190;-78
2022/01/19 22:26:42;;;;;;;14.13;2.67;;;4.90;99.90;;;;;;5071990;28;20266;-78
2022/01/19 22:29:08;;;;;;;14.13;2.77;;;4.90;99.90;;;;;;5070814;28;20206;-79
2022/01/19 22:31:35;;;;;;;16.37;3.23;;;4.80;99.90;;;;;;5072071;28;20202;-79
2022/01/19 22:34:01;;;;;;;16.67;2.90;;;4.80;99.90;;;;;;5071905;28;20195;-79
2022/01/19 22:36:27;;;;;;;17.73;3.10;;;4.80;99.90;;;;;;5070632;28;20274;-78
2022/01/19 22:38:52;;;;;;;16.50;2.93;;;4.80;99.90;;;;;;5069592;28;20372;-78
2022/01/19 22:41:18;;;;;;;19.63;2.73;;;4.80;99.90;;;;;;5070959;28;20194;-78
2022/01/19 22:43:44;;;;;;;15.37;2.77;;;4.80;99.90;;;;;;5070013;28;20185;-77
2022/01/19 22:46:13;;;;;;;14.33;2.87;;;4.70;99.90;;;;;;5069774;28;20826;-78
2022/01/19 22:48:41;;;;;;;14.40;3.37;;;4.70;99.90;;;;;;5067495;28;20191;-78
2022/01/19 22:51:10;;;;;;;12.67;2.40;;;4.70;99.90;;;;;;5064612;28;20317;-78
2022/01/19 22:53:39;;;;;;;15.77;3.03;;;4.60;99.90;;;;;;5070715;28;20232;-78
2022/01/19 22:56:05;;;;;;;16.77;2.40;;;4.60;99.90;;;;;;5069894;28;20190;-78
2022/01/19 22:58:31;;;;;;;21.63;3.00;;;4.60;99.90;;;;;;5069424;28;20187;-78
2022/01/19 23:00:57;;;;;;;18.90;2.70;;;4.60;99.90;;;;;;5067899;28;20203;-78
2022/01/19 23:03:23;;;;;;;21.30;3.40;;;4.60;99.90;;;;;;5070342;28;20190;-77
2022/01/19 23:05:48;;;;;;;23.67;3.00;;;4.60;99.90;;;;;;5069977;28;20218;-78
2022/01/19 23:08:14;;;;;;;13.73;2.33;;;4.50;99.90;;;;;;5068601;28;20228;-77
2022/01/19 23:10:40;;;;;;;17.00;2.77;;;4.50;99.90;;;;;;5070335;28;20211;-78
2022/01/19 23:13:05;;;;;;;15.37;2.70;;;4.50;99.90;;;;;;5070026;28;20202;-77
2022/01/19 23:15:32;;;;;;;16.77;3.37;;;4.50;99.90;;;;;;5069476;28;20190;-78
2022/01/19 23:17:58;;;;;;;16.63;3.40;;;4.50;99.90;;;;;;5072060;28;20179;-78
2022/01/19 23:20:25;;;;;;;14.40;3.57;;;4.50;99.90;;;;;;5069808;28;20207;-78
2022/01/19 23:22:51;;;;;;;20.20;2.80;;;4.50;99.90;;;;;;5069439;28;20187;-77
2022/01/19 23:25:17;;;;;;;16.07;3.27;;;4.40;99.90;;;;;;5068752;28;20182;-77
2022/01/19 23:27:43;;;;;;;12.53;2.87;;;4.50;99.90;;;;;;5070345;28;20191;-78
2022/01/19 23:30:11;;;;;;;21.03;2.73;;;4.50;99.90;;;;;;5068230;28;20222;-77
2022/01/19 23:33:06;;;;;;;16.50;2.53;;;4.40;99.90;;;;;;5069334;28;20203;-78
2022/01/19 23:35:29;;;;;;;19.97;3.27;;;4.40;99.90;;;;;;5069464;28;20209;-78
2022/01/19 23:48:18;;;;;;;24.20;3.17;;;4.30;99.90;;;;;;5070061;28;20194;-79
2022/01/19 23:50:44;;;;;;;13.47;2.50;;;4.40;99.90;;;;;;5068972;28;20215;-79
2022/01/19 23:53:10;;;;;;;14.67;2.20;;;4.30;99.90;;;;;;5070324;28;20190;-80
2022/01/19 23:55:36;;;;;;;12.10;2.97;;;4.30;99.90;;;;;;5069700;28;20270;-80
2022/01/19 23:58:10;;;;;;;13.33;2.37;;;4.20;99.90;;;;;;5068754;28;20179;-80
